createdAt,value
2024-01-03T00:00:26.269Z,96100.59
2024-01-03T00:02:53.782Z,96093.46
2024-01-03T00:05:42.316Z,96095.17
2024-01-03T00:08:30.619Z,96090.62
2024-01-03T00:10:58.260Z,96090.48
2024-01-03T00:13:34.151Z,96088.91
2024-01-03T00:16:08.356Z,96085.24
2024-01-03T00:18:51.972Z,96084.29
2024-01-03T00:21:23.754Z,96078.88
2024-01-03T00:23:57.843Z,96078.17
2024-01-03T00:26:28.264Z,96076.86
2024-01-03T00:28:55.445Z,96069.88
2024-01-03T00:31:45.643Z,96063.15
2024-01-03T00:34:18.676Z,96055.29
2024-01-03T00:36:49.969Z,96052.16
2024-01-03T00:39:27.603Z,96042.17
2024-01-03T00:41:55.685Z,96039.96
2024-01-03T00:44:22.497Z,96039.59
2024-01-03T00:46:50.150Z,96033.17
2024-01-03T00:49:17.364Z,96030.40
2024-01-03T00:51:46.813Z,96027.51
2024-01-03T00:54:13.822Z,96024.66
2024-01-03T00:56:41.076Z,96015.80
2024-01-03T00:59:07.834Z,96009.52
2024-01-03T01:01:34.887Z,96005.89
2024-01-03T01:04:01.843Z,96006.05
2024-01-03T01:06:29.951Z,96004.90
2024-01-03T01:08:57.880Z,96000.70
2024-01-03T01:11:24.895Z,95999.14
2024-01-03T01:13:51.566Z,95993.49
2024-01-03T01:16:18.410Z,95987.58
2024-01-03T01:18:45.415Z,95978.66
2024-01-03T01:21:12.424Z,95978.13
2024-01-03T01:23:42.767Z,95978.89
2024-01-03T01:26:09.977Z,95980.39
2024-01-03T01:28:38.535Z,95976.67
2024-01-03T01:31:05.203Z,95976.67
2024-01-03T01:33:32.206Z,95969.42
2024-01-03T01:35:59.143Z,95967.13
2024-01-03T01:38:25.864Z,95961.11
2024-01-03T01:40:52.518Z,95955.54
2024-01-03T01:43:19.182Z,95950.08
2024-01-03T01:45:46.023Z,95946.38
2024-01-03T01:48:13.189Z,95942.77
2024-01-03T01:50:40.560Z,95937.30
2024-01-03T01:53:07.708Z,95939.40
2024-01-03T01:55:37.862Z,95936.06
2024-01-03T01:58:05.874Z,95930.91
2024-01-03T02:00:32.904Z,95926.27
2024-01-03T02:02:59.897Z,95924.09
2024-01-03T02:05:26.661Z,95915.65
2024-01-03T02:07:53.428Z,95913.98
2024-01-03T02:10:20.367Z,95911.48
2024-01-03T02:12:47.173Z,95905.77
2024-01-03T02:15:14.331Z,95900.42
2024-01-03T02:17:41.375Z,95898.03
2024-01-03T02:20:08.762Z,95898.03
2024-01-03T02:22:35.728Z,95894.49
2024-01-03T02:25:06.689Z,95891.34
2024-01-03T02:27:33.698Z,95893.38
2024-01-03T02:30:00.565Z,95892.12
2024-01-03T02:32:27.390Z,95891.86
2024-01-03T02:34:54.190Z,95887.63
2024-01-03T02:37:23.261Z,95889.13
2024-01-03T02:39:50.481Z,95885.70
2024-01-03T02:42:17.319Z,95883.08
2024-01-03T02:44:44.112Z,95880.73
2024-01-03T02:47:10.830Z,95874.21
2024-01-03T02:49:37.449Z,95867.17
2024-01-03T02:52:04.775Z,95865.77
2024-01-03T02:54:31.661Z,95866.55
2024-01-03T02:56:58.862Z,95858.98
2024-01-03T02:59:26.749Z,95855.80
2024-01-03T03:01:53.475Z,95858.44
2024-01-03T03:04:20.339Z,95852.92
2024-01-03T03:06:47.254Z,95848.64
2024-01-03T03:09:17.075Z,95844.59
2024-01-03T03:11:47.038Z,95841.66
2024-01-03T03:14:15.073Z,95839.09
2024-01-03T03:16:42.240Z,95834.36
2024-01-03T03:19:09.303Z,95832.73
2024-01-03T03:21:36.435Z,95822.80
2024-01-03T03:24:03.382Z,95819.98
2024-01-03T03:26:30.542Z,95820.15
2024-01-03T03:28:57.786Z,95814.16
2024-01-03T03:31:24.794Z,95811.74
2024-01-03T03:33:51.740Z,95805.98
2024-01-03T03:36:20.943Z,95806.98
2024-01-03T03:38:47.821Z,95806.88
2024-01-03T03:41:15.650Z,95801.67
2024-01-03T03:43:42.478Z,95800.42
2024-01-03T03:46:09.687Z,95797.25
2024-01-03T03:48:36.624Z,95794.50
2024-01-03T03:51:04.135Z,95790.50
2024-01-03T03:53:31.073Z,95788.73
2024-01-03T03:55:57.890Z,95785.80
2024-01-03T03:58:24.732Z,95786.17
2024-01-03T04:00:51.522Z,95782.16
2024-01-03T04:03:18.598Z,95781.59
2024-01-03T04:05:45.535Z,95775.40
2024-01-03T04:08:12.611Z,95773.58
2024-01-03T04:10:39.668Z,95769.37
2024-01-03T04:13:06.710Z,95768.17
2024-01-03T04:15:33.626Z,95769.54
2024-01-03T04:18:01.639Z,95768.63
2024-01-03T04:20:28.506Z,95763.98
2024-01-03T04:22:55.530Z,95761.63
2024-01-03T04:25:22.185Z,95754.25
2024-01-03T04:27:48.840Z,95750.95
2024-01-03T04:30:15.883Z,95746.48
2024-01-03T04:32:43.347Z,95748.56
2024-01-03T04:35:10.261Z,95744.17
2024-01-03T04:37:37.092Z,95742.25
2024-01-03T04:40:04.301Z,95737.77
2024-01-03T04:42:31.395Z,95733.35
2024-01-03T04:44:58.310Z,95732.40
2024-01-03T04:47:25.312Z,95729.73
2024-01-03T04:49:53.002Z,95725.30
2024-01-03T04:52:20.297Z,95724.63
2024-01-03T04:54:47.366Z,95717.86
2024-01-03T04:57:14.934Z,95711.40
2024-01-03T04:59:43.015Z,95715.11
2024-01-03T05:02:09.838Z,95709.84
2024-01-03T05:06:53.861Z,95701.92
2024-01-03T05:09:20.791Z,95700.95
2024-01-03T05:11:47.441Z,95698.34
2024-01-03T05:14:14.009Z,95694.70
2024-01-03T05:16:41.877Z,95695.48
2024-01-03T05:19:08.929Z,95689.48
2024-01-03T05:21:36.503Z,95689.59
2024-01-03T05:24:03.581Z,95685.77
2024-01-03T05:26:30.730Z,95683.48
2024-01-03T05:28:57.531Z,95684.31
2024-01-03T05:31:24.141Z,95686.02
2024-01-03T05:33:50.931Z,95683.27
2024-01-03T05:36:17.707Z,95679.57
2024-01-03T05:38:44.706Z,95679.27
2024-01-03T05:41:12.502Z,95678.52
2024-01-03T05:43:39.273Z,95678.06
2024-01-03T05:46:06.266Z,95676.80
2024-01-03T05:48:33.334Z,95677.61
2024-01-03T05:51:00.334Z,95677.77
2024-01-03T05:53:27.038Z,95676.38
2024-01-03T05:55:53.768Z,95670.34
2024-01-03T05:58:20.297Z,95673.30
2024-01-03T06:00:47.035Z,95666.61
2024-01-03T06:03:13.756Z,95670.46
2024-01-03T06:05:40.594Z,95672.64
2024-01-03T06:08:08.135Z,95675.77
2024-01-03T06:10:35.606Z,95675.58
2024-01-03T06:13:02.552Z,95681.11
2024-01-03T06:15:29.552Z,95681.05
2024-01-03T06:17:56.372Z,95677.88
2024-01-03T06:20:24.241Z,95678.19
2024-01-03T06:22:51.411Z,95680.44
2024-01-03T06:25:18.201Z,95681.79
2024-01-03T06:27:45.235Z,95681.33
2024-01-03T06:30:12.601Z,95680.50
2024-01-03T06:32:39.923Z,95677.95
2024-01-03T06:35:07.942Z,95676.81
2024-01-03T06:37:34.695Z,95677.99
2024-01-03T06:40:01.606Z,95674.45
2024-01-03T06:42:29.031Z,95671.08
2024-01-03T06:44:56.221Z,95667.08
2024-01-03T06:47:22.990Z,95664.06
2024-01-03T06:49:49.869Z,95661.94
2024-01-03T06:52:16.530Z,95658.66
2024-01-03T06:54:43.358Z,95659.70
2024-01-03T06:57:10.276Z,95658.42
2024-01-03T06:59:37.461Z,95654.68
2024-01-03T07:02:04.533Z,95652.23
2024-01-03T07:04:31.584Z,95648.86
2024-01-03T07:06:58.274Z,95653.54
2024-01-03T07:09:25.728Z,95648.51
2024-01-03T07:11:53.995Z,95643.92
2024-01-03T07:14:20.966Z,95644.65
2024-01-03T07:16:50.751Z,95644.86
2024-01-03T07:19:18.671Z,95647.95
2024-01-03T07:21:45.431Z,95642.84
2024-01-03T07:24:12.020Z,95644.20
2024-01-03T07:26:39.061Z,95643.00
2024-01-03T07:29:05.938Z,95644.98
2024-01-03T07:31:32.688Z,95646.50
2024-01-03T07:33:59.750Z,95646.66
2024-01-03T07:36:26.789Z,95634.27
2024-01-03T07:38:55.033Z,95635.17
2024-01-03T07:41:21.976Z,95629.17
2024-01-03T07:43:48.590Z,95632.09
2024-01-03T07:46:16.543Z,95626.73
2024-01-03T07:48:43.514Z,95625.05
2024-01-03T07:51:13.272Z,95624.53
2024-01-03T07:53:40.072Z,95627.77
2024-01-03T07:56:08.080Z,95629.23
2024-01-03T07:58:35.027Z,95628.60
2024-01-03T08:01:01.761Z,95629.32
2024-01-03T08:03:28.946Z,95627.92
2024-01-03T08:05:55.979Z,95621.52
2024-01-03T08:08:22.801Z,95619.64
2024-01-03T08:10:49.640Z,95618.92
2024-01-03T08:13:17.168Z,95615.11
2024-01-03T08:15:44.049Z,95612.88
2024-01-03T08:18:11.153Z,95608.70
2024-01-03T08:20:38.851Z,95609.80
2024-01-03T08:23:05.898Z,95608.80
2024-01-03T08:25:32.717Z,95600.07
2024-01-03T08:27:59.588Z,95605.33
2024-01-03T08:30:26.469Z,95603.61
2024-01-03T08:32:53.409Z,95604.65
2024-01-03T08:35:20.479Z,95609.76
2024-01-03T08:37:47.386Z,95608.19
2024-01-03T08:40:14.626Z,95608.30
2024-01-03T08:42:41.495Z,95607.30
2024-01-03T08:45:09.982Z,95603.34
2024-01-03T08:47:36.895Z,95602.62
2024-01-03T08:50:04.294Z,95605.49
2024-01-03T08:52:31.636Z,95598.34
2024-01-03T08:55:00.370Z,95599.23
2024-01-03T08:57:27.764Z,95595.49
2024-01-03T08:59:54.468Z,95595.17
2024-01-03T09:02:21.198Z,95592.04
2024-01-03T09:04:47.957Z,95591.32
2024-01-03T09:07:14.909Z,95591.42
2024-01-03T09:09:41.622Z,95586.41
2024-01-03T09:12:08.761Z,95584.73
2024-01-03T09:14:35.952Z,95582.08
2024-01-03T09:17:02.965Z,95576.60
2024-01-03T09:19:32.095Z,95575.60
2024-01-03T09:22:00.569Z,95581.70
2024-01-03T09:24:30.341Z,95575.39
2024-01-03T09:26:58.950Z,95577.11
2024-01-03T09:29:26.009Z,95579.13
2024-01-03T09:31:53.498Z,95575.66
2024-01-03T09:34:20.628Z,95570.08
2024-01-03T09:36:47.513Z,95566.88
2024-01-03T09:39:16.905Z,95566.71
2024-01-03T09:41:43.646Z,95564.50
2024-01-03T09:44:11.215Z,95564.34
2024-01-03T09:46:38.168Z,95560.85
2024-01-03T09:49:05.132Z,95566.33
2024-01-03T09:51:32.325Z,95566.41
2024-01-03T09:53:59.796Z,95563.53
2024-01-03T09:56:27.047Z,95564.09
2024-01-03T09:58:53.671Z,95567.23
2024-01-03T10:01:20.833Z,95557.77
2024-01-03T10:03:47.841Z,95557.33
2024-01-03T10:06:19.301Z,95556.55
2024-01-03T10:09:18.377Z,95551.89
2024-01-03T10:11:45.755Z,95544.55
2024-01-03T10:14:18.256Z,95541.98
2024-01-03T10:16:45.885Z,95544.55
2024-01-03T10:19:18.109Z,95541.17
2024-01-03T10:21:52.436Z,95538.33
2024-01-03T10:24:24.231Z,95535.43
2024-01-03T10:26:51.405Z,95536.08
2024-01-03T10:29:19.789Z,95540.95
2024-01-03T10:31:47.893Z,95536.30
2024-01-03T10:34:21.426Z,95534.94
2024-01-03T10:36:48.786Z,95542.22
2024-01-03T10:39:16.453Z,95536.73
2024-01-03T10:41:44.550Z,95533.61
2024-01-03T10:44:12.914Z,95537.63
2024-01-03T10:46:43.122Z,95530.58
2024-01-03T10:49:10.033Z,95525.27
2024-01-03T10:51:43.018Z,95524.52
2024-01-03T10:54:11.886Z,95519.84
2024-01-03T10:56:39.302Z,95522.92
2024-01-03T10:59:06.152Z,95518.02
2024-01-03T11:01:35.925Z,95511.42
2024-01-03T11:04:26.111Z,95516.13
2024-01-03T11:07:14.326Z,95513.56
2024-01-03T11:09:42.216Z,95514.48
2024-01-03T11:12:14.107Z,95511.81
2024-01-03T11:14:41.442Z,95514.36
2024-01-03T11:17:11.729Z,95509.68
2024-01-03T11:19:41.536Z,95510.30
2024-01-03T11:22:08.792Z,95512.18
2024-01-03T11:24:42.623Z,95501.49
2024-01-03T11:27:20.049Z,95506.84
2024-01-03T11:29:51.783Z,95504.92
2024-01-03T11:32:35.799Z,95506.23
2024-01-03T11:35:09.116Z,95507.23
2024-01-03T11:37:36.439Z,95502.00
2024-01-03T11:40:06.691Z,95503.36
2024-01-03T11:42:34.872Z,95500.83
2024-01-03T11:45:16.216Z,95497.50
2024-01-03T11:47:47.349Z,95494.51
2024-01-03T11:50:15.805Z,95496.04
2024-01-03T11:52:46.437Z,95498.79
2024-01-03T11:55:13.967Z,95499.58
2024-01-03T11:57:44.672Z,95494.85
2024-01-03T12:00:16.433Z,95500.58
2024-01-03T12:03:04.162Z,95502.05
2024-01-03T12:05:31.995Z,95501.67
2024-01-03T12:07:59.311Z,95503.86
2024-01-03T12:10:26.360Z,95498.10
2024-01-03T12:12:53.236Z,95499.58
2024-01-03T12:15:34.333Z,95492.73
2024-01-03T12:18:10.578Z,95505.71
2024-01-03T12:20:38.131Z,95501.91
2024-01-03T12:23:08.484Z,95505.95
2024-01-03T12:25:35.513Z,95510.77
2024-01-03T12:28:02.191Z,95513.67
2024-01-03T12:30:31.190Z,95517.34
2024-01-03T12:33:15.654Z,95512.45
2024-01-03T12:35:47.911Z,95524.80
2024-01-03T12:38:15.365Z,95519.86
2024-01-03T12:40:44.473Z,95528.60
2024-01-03T12:43:13.544Z,95535.06
2024-01-03T12:45:42.647Z,95536.23
2024-01-03T12:48:09.362Z,95528.01
2024-01-03T12:50:37.817Z,95530.35
2024-01-03T12:53:04.400Z,95530.77
2024-01-03T12:55:31.449Z,95531.13
2024-01-03T12:57:59.153Z,95531.63
2024-01-03T13:00:25.995Z,95528.85
2024-01-03T13:02:53.308Z,95528.95
2024-01-03T13:05:20.674Z,95531.98
2024-01-03T13:07:47.738Z,95535.02
2024-01-03T13:10:15.069Z,95535.71
2024-01-03T13:12:41.748Z,95536.92
2024-01-03T13:15:09.450Z,95544.58
2024-01-03T13:17:36.842Z,95540.31
2024-01-03T13:20:04.461Z,95536.14
2024-01-03T13:22:32.333Z,95535.41
2024-01-03T13:24:59.177Z,95538.24
2024-01-03T13:27:27.379Z,95535.58
2024-01-03T13:29:54.374Z,95537.86
2024-01-03T13:32:21.011Z,95534.17
2024-01-03T13:34:48.593Z,95535.23
2024-01-03T13:37:15.882Z,95534.77
2024-01-03T13:39:43.785Z,95535.27
2024-01-03T13:42:12.684Z,95538.48
2024-01-03T13:44:39.522Z,95543.54
2024-01-03T13:47:06.337Z,95539.52
2024-01-03T13:49:33.357Z,95552.84
2024-01-03T13:52:00.850Z,95556.48
2024-01-03T13:54:27.654Z,95555.81
2024-01-03T13:56:54.461Z,95552.17
2024-01-03T13:59:22.628Z,95551.06
2024-01-03T14:01:49.744Z,95555.10
2024-01-03T14:04:19.809Z,95562.64
2024-01-03T14:06:47.412Z,95557.95
2024-01-03T14:09:16.338Z,95555.95
2024-01-03T14:11:45.894Z,95557.55
2024-01-03T14:14:14.501Z,95557.58
2024-01-03T14:16:46.962Z,95559.70
2024-01-03T14:19:14.958Z,95569.46
2024-01-03T14:21:50.688Z,95568.46
2024-01-03T14:24:20.105Z,95559.38
2024-01-03T14:26:47.696Z,95560.98
2024-01-03T14:29:14.710Z,95565.45
2024-01-03T14:31:43.607Z,95564.59
2024-01-03T14:34:11.344Z,95566.63
2024-01-03T14:36:38.305Z,95560.58
2024-01-03T14:39:09.041Z,95562.59
2024-01-03T14:41:36.272Z,95565.79
2024-01-03T14:44:05.931Z,95567.09
2024-01-03T14:46:35.477Z,95565.96
2024-01-03T14:49:02.256Z,95571.06
2024-01-03T14:51:29.223Z,95574.51
2024-01-03T14:53:57.889Z,95568.44
2024-01-03T14:56:28.083Z,95569.40
2024-01-03T14:58:55.880Z,95575.83
2024-01-03T15:01:22.831Z,95585.48
2024-01-03T15:03:49.898Z,95583.50
2024-01-03T15:06:18.892Z,95581.26
2024-01-03T15:08:46.834Z,95581.95
2024-01-03T15:11:14.285Z,95580.23
2024-01-03T15:13:42.163Z,95586.43
2024-01-03T15:16:09.255Z,95588.77
2024-01-03T15:18:37.725Z,95593.96
2024-01-03T15:21:05.257Z,95589.89
2024-01-03T15:23:32.172Z,95591.02
2024-01-03T15:25:58.956Z,95595.05
2024-01-03T15:28:27.979Z,95594.08
2024-01-03T15:30:54.851Z,95597.35
2024-01-03T15:33:31.297Z,95595.74
2024-01-03T15:35:58.183Z,95595.73
2024-01-03T15:38:25.485Z,95599.35
2024-01-03T15:40:53.256Z,95595.75
2024-01-03T15:43:20.039Z,95587.75
2024-01-03T15:45:46.892Z,95594.77
2024-01-03T15:48:14.512Z,95590.66
2024-01-03T15:50:41.912Z,95593.55
2024-01-03T15:53:10.122Z,95597.89
2024-01-03T15:55:37.065Z,95600.45
2024-01-03T15:58:04.610Z,95600.92
2024-01-03T16:00:34.334Z,95601.08
2024-01-03T16:03:02.169Z,95605.67
2024-01-03T16:05:29.896Z,95606.65
2024-01-03T16:07:57.002Z,95612.42
2024-01-03T16:10:24.042Z,95614.73
2024-01-03T16:12:50.896Z,95609.55
2024-01-03T16:15:17.709Z,95612.03
2024-01-03T16:17:44.914Z,95617.73
2024-01-03T16:20:14.040Z,95622.27
2024-01-03T16:22:40.594Z,95624.56
2024-01-03T16:25:11.162Z,95629.46
2024-01-03T16:27:39.134Z,95621.47
2024-01-03T16:30:06.684Z,95622.54
2024-01-03T16:32:34.841Z,95619.22
2024-01-03T16:35:04.358Z,95619.67
2024-01-03T16:37:32.828Z,95620.16
2024-01-03T16:39:59.796Z,95620.84
2024-01-03T16:42:26.862Z,95622.00
2024-01-03T16:44:53.667Z,95624.20
2024-01-03T16:47:20.520Z,95625.91
2024-01-03T16:49:47.486Z,95619.17
2024-01-03T16:52:14.252Z,95620.80
2024-01-03T16:54:40.904Z,95619.86
2024-01-03T16:57:07.760Z,95630.81
2024-01-03T16:59:34.851Z,95628.73
2024-01-03T17:02:02.453Z,95629.40
2024-01-03T17:04:29.400Z,95627.92
2024-01-03T17:06:56.468Z,95627.61
2024-01-03T17:09:23.098Z,95621.92
2024-01-03T17:11:50.027Z,95628.80
2024-01-03T17:14:17.291Z,95627.39
2024-01-03T17:16:44.853Z,95626.08
2024-01-03T17:19:12.029Z,95623.36
2024-01-03T17:23:31.569Z,95629.21
2024-01-03T17:25:59.200Z,95626.89
2024-01-03T17:28:27.442Z,95625.73
2024-01-03T17:30:56.119Z,95628.50
2024-01-03T17:33:23.879Z,95630.69
2024-01-03T17:35:51.821Z,95629.45
2024-01-03T17:38:19.342Z,95626.36
2024-01-03T17:40:46.744Z,95626.98
2024-01-03T17:43:14.160Z,95623.04
2024-01-03T17:45:41.714Z,95625.86
2024-01-03T17:48:09.455Z,95631.27
2024-01-03T17:50:37.606Z,95629.50
2024-01-03T17:53:05.180Z,95627.64
2024-01-03T17:55:32.827Z,95628.43
2024-01-03T17:58:00.391Z,95629.17
2024-01-03T18:00:28.046Z,95635.23
2024-01-03T18:02:55.674Z,95628.39
2024-01-03T18:05:23.230Z,95628.63
2024-01-03T18:07:51.815Z,95624.45
2024-01-03T18:10:19.283Z,95620.73
2024-01-03T18:12:46.886Z,95624.05
2024-01-03T18:15:14.532Z,95621.90
2024-01-03T18:17:43.162Z,95623.05
2024-01-03T18:20:11.517Z,95617.79
2024-01-03T18:22:41.137Z,95620.31
2024-01-03T18:25:10.208Z,95620.11
2024-01-03T18:27:37.629Z,95620.59
2024-01-03T18:30:11.307Z,95622.52
2024-01-03T18:32:39.671Z,95622.17
2024-01-03T18:35:09.821Z,95626.31
2024-01-03T18:37:42.282Z,95627.88
2024-01-03T18:40:10.912Z,95628.94
2024-01-03T18:42:39.997Z,95623.66
2024-01-03T18:45:09.569Z,95620.54
2024-01-03T18:47:37.194Z,95622.77
2024-01-03T18:50:07.804Z,95622.62
2024-01-03T18:52:35.604Z,95627.17
2024-01-03T18:55:03.254Z,95628.64
2024-01-03T18:57:30.961Z,95627.55
2024-01-03T18:59:59.390Z,95630.95
2024-01-03T19:02:27.252Z,95630.34
2024-01-03T19:04:54.875Z,95629.14
2024-01-03T19:07:23.147Z,95625.00
2024-01-03T19:09:50.777Z,95620.61
2024-01-03T19:12:19.569Z,95619.56
2024-01-03T19:14:46.943Z,95622.70
2024-01-03T19:17:14.806Z,95622.79
2024-01-03T19:19:42.671Z,95621.79
2024-01-03T19:22:10.370Z,95621.27
2024-01-03T19:24:37.921Z,95615.82
2024-01-03T19:27:05.886Z,95614.14
2024-01-03T19:29:33.681Z,95615.80
2024-01-03T19:32:01.330Z,95615.85
2024-01-03T19:34:30.213Z,95613.02
2024-01-03T19:36:57.874Z,95617.86
2024-01-03T19:39:25.421Z,95617.48
2024-01-03T19:41:53.246Z,95614.23
2024-01-03T19:44:21.235Z,95613.17
2024-01-03T19:46:48.804Z,95613.89
2024-01-03T19:49:16.317Z,95614.77
2024-01-03T19:51:44.119Z,95617.33
2024-01-03T19:54:11.777Z,95615.13
2024-01-03T19:56:43.713Z,95616.16
2024-01-03T19:59:11.254Z,95613.79
2024-01-03T20:01:38.861Z,95611.21
2024-01-03T20:04:07.115Z,95613.35
2024-01-03T20:06:34.769Z,95611.52
2024-01-03T20:09:02.718Z,95616.42
2024-01-03T20:11:30.364Z,95614.27
2024-01-03T20:13:58.513Z,95615.48
2024-01-03T20:16:25.897Z,95614.73
2024-01-03T20:18:55.226Z,95616.29
2024-01-03T20:21:22.767Z,95613.87
2024-01-03T20:23:50.973Z,95612.36
2024-01-03T20:26:18.798Z,95616.54
2024-01-03T20:28:48.377Z,95620.33
2024-01-03T20:31:18.108Z,95622.23
2024-01-03T20:33:45.964Z,95623.07
2024-01-03T20:36:13.897Z,95624.85
2024-01-03T20:38:42.021Z,95625.05
2024-01-03T20:41:09.763Z,95626.56
2024-01-03T20:43:37.921Z,95627.81
2024-01-03T20:46:06.896Z,95629.00
2024-01-03T20:48:36.314Z,95625.33
2024-01-03T20:51:05.519Z,95628.29
2024-01-03T20:53:33.013Z,95625.20
2024-01-03T20:56:00.543Z,95626.57
2024-01-03T20:58:28.128Z,95626.52
2024-01-03T21:00:55.620Z,95626.17
2024-01-03T21:03:23.094Z,95626.73
2024-01-03T21:05:50.834Z,95629.86
2024-01-03T21:08:18.454Z,95628.34
2024-01-03T21:10:46.025Z,95629.60
2024-01-03T21:13:13.534Z,95625.14
2024-01-03T21:15:41.042Z,95620.77
2024-01-03T21:18:08.807Z,95620.64
2024-01-03T21:20:36.540Z,95618.52
2024-01-03T21:23:04.220Z,95624.41
2024-01-03T21:25:31.776Z,95622.36
2024-01-03T21:28:01.655Z,95624.86
2024-01-03T21:30:29.339Z,95625.00
2024-01-03T21:32:57.082Z,95627.14
2024-01-03T21:35:24.671Z,95627.49
2024-01-03T21:37:52.073Z,95629.35
2024-01-03T21:40:19.700Z,95633.15
2024-01-03T21:42:49.513Z,95632.58
2024-01-03T21:45:18.595Z,95634.61
2024-01-03T21:47:46.325Z,95622.11
2024-01-03T21:50:14.076Z,95626.88
2024-01-03T21:52:47.667Z,95628.72
2024-01-03T21:55:15.336Z,95624.76
2024-01-03T21:57:43.943Z,95614.15
2024-01-03T22:00:12.218Z,95615.30
2024-01-03T22:02:39.710Z,95611.14
2024-01-03T22:05:12.989Z,95611.15
2024-01-03T22:07:40.669Z,95615.61
2024-01-03T22:10:16.007Z,95609.63
2024-01-03T22:12:49.545Z,95607.54
2024-01-03T22:15:18.706Z,95606.82
2024-01-03T22:17:46.679Z,95598.62
2024-01-03T22:20:14.824Z,95597.67
2024-01-03T22:22:44.038Z,95593.74
2024-01-03T22:25:11.908Z,95591.71
2024-01-03T22:27:41.111Z,95589.98
2024-01-03T22:30:09.733Z,95595.86
2024-01-03T22:32:37.650Z,95596.97
2024-01-03T22:35:07.431Z,95596.02
2024-01-03T22:37:35.059Z,95594.10
2024-01-03T22:40:02.925Z,95593.10
2024-01-03T22:42:34.356Z,95593.38
2024-01-03T22:45:03.187Z,95591.40
2024-01-03T22:47:31.320Z,95586.11
2024-01-03T22:49:59.191Z,95587.20
2024-01-03T22:52:26.814Z,95583.17
2024-01-03T22:54:54.857Z,95587.05
2024-01-03T22:57:22.614Z,95580.88
2024-01-03T22:59:50.594Z,95582.55
2024-01-03T23:02:18.730Z,95588.39
2024-01-03T23:04:46.237Z,95593.48
2024-01-03T23:07:13.881Z,95587.73
2024-01-03T23:09:41.601Z,95590.58
2024-01-03T23:12:09.971Z,95579.48
2024-01-03T23:14:37.655Z,95588.23
2024-01-03T23:17:14.996Z,95587.35
2024-01-03T23:19:48.396Z,95582.47
2024-01-03T23:22:16.032Z,95578.52
2024-01-03T23:24:43.722Z,95574.88
2024-01-03T23:27:11.498Z,95575.98
2024-01-03T23:29:39.247Z,95571.83
2024-01-03T23:32:07.484Z,95572.94
2024-01-03T23:34:36.039Z,95570.75
2024-01-03T23:37:03.674Z,95570.45
2024-01-03T23:39:31.488Z,95567.32
2024-01-03T23:41:59.151Z,95576.02
2024-01-03T23:44:26.581Z,95578.83
2024-01-03T23:46:53.922Z,95580.90
2024-01-03T23:49:21.467Z,95581.63
2024-01-03T23:51:49.212Z,95581.42
2024-01-03T23:54:17.514Z,95578.55
2024-01-03T23:56:45.178Z,95577.96
2024-01-03T23:59:12.800Z,95573.95
